Terminal Aerodrome Forecast
Issued by NWS

Home | Current Version | Previous Version | Text Only | Print | Product List | Glossary On
Versions: 1 2 3 4 5 6 7 8 9 10 11 12 13 14
000
FTUS43 KJKL 241505 AAB
TAFSME
TAF AMD
KSME 241505Z 2415/2512 08006KT P6SM OVC012
     FM241800 06007KT P6SM OVC020
     FM242000 05007KT P6SM BKN035
     FM250100 VRB03KT P6SM BKN070
     FM250700 00000KT 4SM BR SCT020=

USA.gov is the U.S. government's official web portal to all federal, state and local government web resources and services.